Time;durP1;ratioP1;P1;durP2;ratioP2;P2;SDS_P1;SDS_P2;PMS_P1;PMS_P2;Temp;Humidity;BMP_temperature;BMP_pressure;BME280_temperature;BME280_humidity;BME280_pressure;Samples;Min_cycle;Max_cycle;Signal;HPM_P1;HPM_P2
2023/07/04 00:00:06;;;;;;;26.10;4.05;;;16.30;99.90;;;;;;5069880;23;20591;-86
2023/07/04 00:02:12;;;;;;;21.20;3.85;;;16.40;99.90;;;;;;5094767;23;20157;-86
2023/07/04 00:04:15;;;;;;;26.60;3.92;;;16.40;99.90;;;;;;5070228;23;20228;-86
2023/07/04 00:06:19;;;;;;;29.17;3.80;;;16.40;99.90;;;;;;5070091;23;20157;-86
2023/07/04 00:08:23;;;;;;;23.95;3.33;;;16.40;99.90;;;;;;5094326;23;20162;-86
2023/07/04 00:10:23;;;;;;;27.08;4.93;;;16.40;99.90;;;;;;5094538;23;20171;-86
2023/07/04 00:12:24;;;;;;;16.92;3.08;;;16.30;99.90;;;;;;5069859;23;20146;-86
2023/07/04 00:14:25;;;;;;;25.20;3.72;;;16.40;99.90;;;;;;5070097;23;20193;-86
2023/07/04 00:16:26;;;;;;;28.17;4.15;;;16.40;99.90;;;;;;5120337;23;20191;-83
2023/07/04 00:18:28;;;;;;;22.52;4.03;;;16.30;99.90;;;;;;5094465;23;20173;-86
2023/07/04 00:20:29;;;;;;;30.08;4.40;;;16.30;99.90;;;;;;5094257;23;20161;-89
2023/07/04 00:22:29;;;;;;;27.15;3.67;;;16.30;99.90;;;;;;5094240;23;20160;-86
2023/07/04 00:24:30;;;;;;;21.52;3.50;;;16.40;99.90;;;;;;5120250;23;20147;-86
2023/07/04 00:26:31;;;;;;;31.83;4.07;;;16.50;99.90;;;;;;5119920;23;20231;-86
2023/07/04 00:28:39;;;;;;;19.85;3.50;;;16.40;99.90;;;;;;5069624;23;20251;-86
2023/07/04 00:30:42;;;;;;;25.52;3.67;;;16.30;99.90;;;;;;5094060;23;20172;-86
2023/07/04 00:32:43;;;;;;;34.85;4.25;;;16.30;99.90;;;;;;5093999;23;20145;-85
2023/07/04 00:34:45;;;;;;;27.50;4.13;;;16.30;99.90;;;;;;5094053;23;20192;-86
2023/07/04 00:36:47;;;;;;;28.77;4.07;;;16.30;99.90;;;;;;5069595;23;20169;-86
2023/07/04 00:38:51;;;;;;;29.67;4.25;;;16.20;99.90;;;;;;5069802;23;20178;-86
2023/07/04 00:40:52;;;;;;;22.17;3.83;;;16.20;99.90;;;;;;5069814;23;20153;-85
2023/07/04 00:42:56;;;;;;;29.92;3.80;;;16.20;99.90;;;;;;5069627;23;20184;-86
2023/07/04 00:44:58;;;;;;;22.27;3.75;;;16.20;99.90;;;;;;5094071;23;20481;-86
2023/07/04 00:47:21;;;;;;;24.50;3.80;;;16.10;99.90;;;;;;5094172;23;20662;-86
2023/07/04 00:49:37;;;;;;;21.92;4.40;;;16.10;99.90;;;;;;5069726;23;20156;-85
2023/07/04 00:51:38;;;;;;;36.17;4.28;;;16.10;99.90;;;;;;5094209;23;20606;-86
2023/07/04 00:53:40;;;;;;;25.05;3.78;;;16.10;99.90;;;;;;5093885;23;20188;-86
2023/07/04 00:55:44;;;;;;;22.85;4.05;;;16.20;99.90;;;;;;5069554;23;20237;-86
2023/07/04 00:57:47;;;;;;;25.23;3.83;;;16.00;99.90;;;;;;5069235;23;20173;-86
2023/07/04 00:59:52;;;;;;;26.90;3.55;;;16.00;99.90;;;;;;5118427;23;20156;-86
2023/07/04 01:01:55;;;;;;;38.88;4.93;;;15.90;99.90;;;;;;5094166;23;20153;-86
2023/07/04 01:03:58;;;;;;;27.70;4.00;;;15.90;99.90;;;;;;5093447;23;20522;-86
2023/07/04 01:06:14;;;;;;;35.22;4.50;;;16.10;99.90;;;;;;5094248;23;20465;-86
2023/07/04 01:08:23;;;;;;;22.50;4.15;;;16.10;99.90;;;;;;5093764;23;20655;-86
2023/07/04 01:10:46;;;;;;;25.70;4.10;;;16.10;99.90;;;;;;5093789;23;20149;-86
2023/07/04 01:12:46;;;;;;;23.40;3.50;;;16.00;99.90;;;;;;5093553;23;20205;-86
2023/07/04 01:14:50;;;;;;;19.30;3.58;;;15.80;99.90;;;;;;5069306;23;20213;-85
2023/07/04 01:16:51;;;;;;;25.08;4.30;;;15.80;99.90;;;;;;5118563;23;20538;-86
2023/07/04 01:18:55;;;;;;;26.83;3.97;;;15.70;99.90;;;;;;5119546;23;20222;-87
2023/07/04 01:20:56;;;;;;;21.95;3.33;;;15.70;99.90;;;;;;5119683;23;20144;-86
2023/07/04 01:23:17;;;;;;;26.33;4.00;;;15.80;99.90;;;;;;5069380;23;20548;-86
2023/07/04 01:25:41;;;;;;;27.00;3.83;;;15.80;99.90;;;;;;5069489;23;20165;-87
2023/07/04 01:27:43;;;;;;;23.08;3.58;;;15.80;99.90;;;;;;5069177;23;20169;-92
2023/07/04 01:29:44;;;;;;;27.77;3.72;;;15.70;99.90;;;;;;5093879;23;20157;-86
2023/07/04 01:31:45;;;;;;;28.88;3.92;;;15.70;99.90;;;;;;5069287;23;20156;-86
2023/07/04 01:33:48;;;;;;;25.88;3.50;;;15.70;99.90;;;;;;5093585;23;20185;-87
2023/07/04 01:35:49;;;;;;;27.02;3.80;;;15.60;99.90;;;;;;5069454;23;20162;-87
2023/07/04 01:37:50;;;;;;;30.35;5.30;;;15.50;99.90;;;;;;5069282;23;20612;-87
2023/07/04 01:39:50;;;;;;;28.65;3.70;;;15.60;99.90;;;;;;5093812;23;20164;-86
2023/07/04 01:41:51;;;;;;;25.38;4.10;;;15.60;99.90;;;;;;5093619;23;20157;-87
2023/07/04 01:44:18;;;;;;;26.95;4.40;;;15.80;99.90;;;;;;5118638;23;20175;-86
2023/07/04 01:46:19;;;;;;;28.20;4.15;;;15.80;99.90;;;;;;5089946;23;20149;-86
2023/07/04 01:48:20;;;;;;;26.58;4.28;;;15.60;99.90;;;;;;5093589;23;20642;-87
2023/07/04 01:50:21;;;;;;;28.75;4.25;;;15.50;99.90;;;;;;5094160;23;20156;-87
2023/07/04 01:52:25;;;;;;;30.92;4.40;;;15.50;99.90;;;;;;5069528;23;20205;-87
2023/07/04 01:54:26;;;;;;;27.42;3.95;;;15.60;99.90;;;;;;5093704;23;20273;-86
2023/07/04 01:56:28;;;;;;;27.70;4.03;;;15.50;99.90;;;;;;5093450;23;20153;-86
2023/07/04 01:58:28;;;;;;;30.92;3.72;;;15.40;99.90;;;;;;5093607;23;20176;-87
2023/07/04 02:00:30;;;;;;;19.80;3.50;;;15.50;99.90;;;;;;5093609;23;20503;-87
2023/07/04 02:02:31;;;;;;;28.27;4.28;;;15.40;99.90;;;;;;5120615;23;20195;-87
2023/07/04 02:04:32;;;;;;;25.67;4.20;;;15.50;99.90;;;;;;5093711;23;20176;-86
2023/07/04 02:06:32;;;;;;;19.25;3.92;;;15.50;99.90;;;;;;5093627;23;20157;-92
2023/07/04 02:08:33;;;;;;;24.65;3.88;;;15.40;99.90;;;;;;5119177;23;20465;-86
2023/07/04 02:10:34;;;;;;;27.73;3.97;;;15.50;99.90;;;;;;5069177;23;20161;-87
2023/07/04 02:12:35;;;;;;;25.90;3.90;;;15.40;99.90;;;;;;5093459;23;20173;-87
2023/07/04 02:14:36;;;;;;;27.17;3.75;;;15.50;99.90;;;;;;5068928;23;20201;-87
2023/07/04 02:16:37;;;;;;;24.40;3.75;;;15.50;99.90;;;;;;5118309;23;20144;-86
2023/07/04 02:18:37;;;;;;;25.88;4.28;;;15.50;99.90;;;;;;5093458;23;20231;-87
2023/07/04 02:20:40;;;;;;;24.95;4.30;;;15.60;99.90;;;;;;5069088;23;20209;-86
2023/07/04 02:22:43;;;;;;;25.25;4.05;;;15.50;99.90;;;;;;5069145;23;20157;-87
2023/07/04 02:24:44;;;;;;;31.48;4.18;;;15.50;99.90;;;;;;5068994;23;20285;-87
2023/07/04 02:26:44;;;;;;;25.77;4.35;;;15.40;99.90;;;;;;5119149;23;20160;-87
2023/07/04 02:28:45;;;;;;;28.02;3.95;;;15.50;99.90;;;;;;5068707;23;20212;-86
2023/07/04 02:30:56;;;;;;;24.17;3.70;;;15.50;99.90;;;;;;5119239;23;20149;-87
2023/07/04 02:32:57;;;;;;;25.90;4.30;;;15.50;99.90;;;;;;5093365;23;20145;-87
2023/07/04 02:34:58;;;;;;;21.83;4.00;;;15.50;99.90;;;;;;5093524;23;20211;-87
2023/07/04 02:36:59;;;;;;;30.92;3.90;;;15.50;99.90;;;;;;5068923;23;20154;-92
2023/07/04 02:39:00;;;;;;;22.60;3.47;;;15.50;99.90;;;;;;5068937;23;20270;-87
2023/07/04 02:41:00;;;;;;;27.52;4.20;;;15.50;99.90;;;;;;5093590;23;20231;-87
2023/07/04 02:43:02;;;;;;;29.63;4.82;;;15.50;99.90;;;;;;5068778;23;20216;-87
2023/07/04 02:45:06;;;;;;;32.58;4.93;;;15.50;99.90;;;;;;5093500;23;20230;-86
2023/07/04 02:47:07;;;;;;;23.92;4.35;;;15.60;99.90;;;;;;5093597;23;20156;-87
2023/07/04 02:49:11;;;;;;;22.80;3.90;;;15.50;99.90;;;;;;5093257;23;20201;-87
2023/07/04 02:51:12;;;;;;;32.70;4.43;;;15.60;99.90;;;;;;5119239;23;20155;-86
2023/07/04 02:53:13;;;;;;;24.52;4.28;;;15.60;99.90;;;;;;5092953;23;20157;-87
2023/07/04 02:55:13;;;;;;;25.67;4.18;;;15.50;99.90;;;;;;5093349;23;20544;-87
2023/07/04 02:57:16;;;;;;;29.38;4.30;;;15.40;99.90;;;;;;5068691;23;20153;-87
2023/07/04 02:59:18;;;;;;;23.63;4.00;;;15.40;99.90;;;;;;5069155;23;20623;-87
2023/07/04 03:01:19;;;;;;;28.90;4.50;;;15.20;99.90;;;;;;5093088;23;20149;-86
2023/07/04 03:03:21;;;;;;;29.45;4.82;;;15.30;99.90;;;;;;5093010;23;20160;-87
2023/07/04 03:05:25;;;;;;;35.42;4.60;;;15.30;99.90;;;;;;5093008;23;20488;-87
2023/07/04 03:07:25;;;;;;;26.55;3.95;;;15.20;99.90;;;;;;5093173;23;20156;-89
2023/07/04 03:09:27;;;;;;;22.00;4.63;;;15.30;99.90;;;;;;5068631;23;20145;-87
2023/07/04 03:11:29;;;;;;;30.50;4.03;;;15.30;99.90;;;;;;5093222;23;20530;-86
2023/07/04 03:13:33;;;;;;;30.83;4.10;;;15.30;99.90;;;;;;5093031;23;20181;-86
2023/07/04 03:15:35;;;;;;;31.27;4.30;;;15.30;99.90;;;;;;5093378;23;20218;-87
2023/07/04 03:17:35;;;;;;;35.45;4.70;;;15.30;99.90;;;;;;5092876;23;20145;-87
2023/07/04 03:19:37;;;;;;;34.90;4.60;;;15.20;99.90;;;;;;5093308;23;20160;-87
2023/07/04 03:21:37;;;;;;;24.73;4.05;;;15.30;99.90;;;;;;5093447;23;20153;-86
2023/07/04 03:23:39;;;;;;;38.60;4.20;;;15.20;99.90;;;;;;5092953;23;20168;-87
2023/07/04 03:25:42;;;;;;;29.15;4.15;;;15.20;99.90;;;;;;5093421;23;20153;-87
2023/07/04 03:27:44;;;;;;;26.92;4.18;;;15.20;99.90;;;;;;5069975;23;20181;-87
2023/07/04 03:29:46;;;;;;;26.13;4.05;;;15.30;99.90;;;;;;5070535;23;20145;-86
2023/07/04 03:31:47;;;;;;;26.90;4.22;;;15.30;99.90;;;;;;5070559;23;20240;-86
2023/07/04 03:33:50;;;;;;;40.83;4.35;;;15.20;99.90;;;;;;5094626;23;20267;-87
2023/07/04 03:35:50;;;;;;;30.88;4.45;;;15.20;99.90;;;;;;5070469;23;20156;-87
2023/07/04 03:37:52;;;;;;;27.30;4.38;;;15.20;99.90;;;;;;5070180;23;20595;-87
2023/07/04 03:39:52;;;;;;;28.90;3.92;;;15.20;99.90;;;;;;5094872;23;20153;-87
2023/07/04 03:41:54;;;;;;;27.98;4.25;;;15.10;99.90;;;;;;5094914;23;20156;-87
2023/07/04 03:43:55;;;;;;;28.17;3.70;;;15.10;99.90;;;;;;5094914;23;20156;-87
2023/07/04 03:45:58;;;;;;;32.13;4.05;;;15.00;99.90;;;;;;5094666;23;20659;-87
2023/07/04 03:47:58;;;;;;;33.13;5.10;;;15.10;99.90;;;;;;5120918;23;20164;-87
2023/07/04 03:49:59;;;;;;;25.95;3.95;;;15.00;99.90;;;;;;5070405;23;20168;-87
2023/07/04 03:52:00;;;;;;;23.35;4.13;;;15.10;99.90;;;;;;5069960;23;20153;-87
2023/07/04 03:54:01;;;;;;;32.75;4.15;;;15.10;99.90;;;;;;5070605;23;20260;-87
2023/07/04 03:56:02;;;;;;;29.13;4.00;;;15.00;99.90;;;;;;5094437;23;20184;-87
2023/07/04 03:58:03;;;;;;;36.40;5.28;;;15.10;99.90;;;;;;5094679;23;20168;-86
2023/07/04 04:00:06;;;;;;;33.15;5.15;;;15.10;99.90;;;;;;5094943;23;20172;-88
2023/07/04 04:02:26;;;;;;;26.52;4.38;;;15.10;99.90;;;;;;5098531;23;20155;-86
2023/07/04 04:04:27;;;;;;;28.50;4.05;;;15.10;99.90;;;;;;5094417;23;20499;-87
2023/07/04 04:06:28;;;;;;;32.30;4.60;;;15.20;99.90;;;;;;5070106;23;20160;-87
2023/07/04 04:08:28;;;;;;;34.88;4.35;;;15.20;99.90;;;;;;5119391;23;20200;-87
2023/07/04 04:10:29;;;;;;;30.00;4.35;;;15.10;99.90;;;;;;5094808;23;20172;-93
2023/07/04 04:12:30;;;;;;;28.27;4.50;;;15.20;99.90;;;;;;5070087;23;20158;-87
2023/07/04 04:14:32;;;;;;;29.80;4.03;;;15.10;99.90;;;;;;5094275;23;20195;-86
2023/07/04 04:16:33;;;;;;;28.08;4.25;;;15.20;99.90;;;;;;5070386;23;20250;-86
2023/07/04 04:18:33;;;;;;;33.83;4.55;;;15.30;99.90;;;;;;5094608;23;20201;-88
2023/07/04 04:20:34;;;;;;;26.45;4.07;;;15.20;99.90;;;;;;5094690;23;20161;-87
2023/07/04 04:22:35;;;;;;;27.25;4.07;;;15.10;99.90;;;;;;5120062;23;20188;-87
2023/07/04 04:24:37;;;;;;;25.70;4.00;;;15.20;99.90;;;;;;5070055;23;20165;-87
2023/07/04 04:26:39;;;;;;;21.48;4.38;;;15.20;99.90;;;;;;5093866;23;20156;-87
2023/07/04 04:28:40;;;;;;;25.33;4.35;;;15.20;99.90;;;;;;5094264;23;20207;-86
2023/07/04 04:30:42;;;;;;;22.75;3.85;;;15.20;99.90;;;;;;5094309;23;20145;-87
2023/07/04 04:32:45;;;;;;;26.60;4.45;;;15.20;99.90;;;;;;5094408;23;20167;-87
2023/07/04 04:34:46;;;;;;;25.33;3.90;;;15.20;99.90;;;;;;5094556;23;20219;-87
2023/07/04 04:36:46;;;;;;;26.02;4.30;;;15.30;99.90;;;;;;5070034;23;20154;-87
2023/07/04 04:38:49;;;;;;;28.60;3.90;;;15.30;99.90;;;;;;5118950;23;20635;-91
2023/07/04 04:40:50;;;;;;;31.58;4.30;;;15.40;99.90;;;;;;5069900;23;20145;-87
2023/07/04 04:42:55;;;;;;;30.15;4.07;;;15.40;99.90;;;;;;5118886;23;20500;-87
2023/07/04 04:44:56;;;;;;;22.92;3.63;;;15.40;99.90;;;;;;5070030;23;20482;-86
2023/07/04 04:46:58;;;;;;;31.73;4.50;;;15.40;99.90;;;;;;5119963;23;20220;-87
2023/07/04 04:49:03;;;;;;;24.10;3.92;;;15.40;99.90;;;;;;5069726;23;20695;-87
2023/07/04 04:51:07;;;;;;;28.83;3.78;;;15.50;99.90;;;;;;5069808;23;20208;-87
2023/07/04 04:53:14;;;;;;;20.88;3.53;;;15.50;99.90;;;;;;5094504;23;20547;-86
2023/07/04 04:55:16;;;;;;;30.38;4.47;;;15.50;99.90;;;;;;5094639;23;20172;-87
2023/07/04 04:57:16;;;;;;;22.65;3.67;;;15.60;99.90;;;;;;5119585;23;20156;-87
2023/07/04 04:59:17;;;;;;;22.65;3.45;;;15.50;99.90;;;;;;5069338;23;20288;-87
2023/07/04 05:01:22;;;;;;;25.45;4.25;;;15.50;99.90;;;;;;5093761;23;20159;-86
2023/07/04 05:03:23;;;;;;;22.85;4.30;;;15.50;99.90;;;;;;5069890;23;20544;-87
2023/07/04 05:05:24;;;;;;;25.00;4.20;;;15.70;99.90;;;;;;5094214;23;20161;-86
2023/07/04 05:07:25;;;;;;;23.27;4.20;;;15.70;99.90;;;;;;5094266;23;20152;-87
2023/07/04 05:09:28;;;;;;;26.65;3.45;;;15.80;99.90;;;;;;5069811;23;20158;-88
2023/07/04 05:11:32;;;;;;;25.60;4.13;;;15.80;99.90;;;;;;5120091;23;20145;-87
2023/07/04 05:13:34;;;;;;;24.67;4.53;;;15.90;99.90;;;;;;5069552;23;20624;-88
2023/07/04 05:15:34;;;;;;;26.60;3.90;;;15.80;99.90;;;;;;5069855;23;20150;-89
2023/07/04 05:17:35;;;;;;;26.80;3.78;;;15.80;99.90;;;;;;5069685;23;20160;-89
2023/07/04 05:19:36;;;;;;;23.50;3.92;;;16.00;99.90;;;;;;5069508;23;20667;-87
2023/07/04 05:21:36;;;;;;;30.08;4.60;;;16.10;99.90;;;;;;5093878;23;20152;-87
2023/07/04 05:23:41;;;;;;;21.73;4.57;;;16.00;99.90;;;;;;5094006;23;20172;-87
2023/07/04 05:25:43;;;;;;;22.42;3.70;;;16.00;99.90;;;;;;5069559;23;20484;-88
2023/07/04 05:27:43;;;;;;;22.52;4.20;;;16.20;99.90;;;;;;5118415;23;20271;-86
2023/07/04 05:29:48;;;;;;;26.23;4.32;;;16.50;99.90;;;;;;5069427;23;20150;-87
2023/07/04 05:31:48;;;;;;;31.08;3.92;;;16.50;99.90;;;;;;5069690;23;20157;-87
2023/07/04 05:33:50;;;;;;;27.58;3.78;;;16.60;99.90;;;;;;5069360;23;20608;-87
2023/07/04 05:35:51;;;;;;;24.48;3.85;;;16.60;99.90;;;;;;5069887;23;20158;-86
2023/07/04 05:37:52;;;;;;;26.63;4.00;;;16.50;99.90;;;;;;5093774;23;20185;-88
2023/07/04 05:39:52;;;;;;;26.63;4.60;;;16.60;99.90;;;;;;5094111;23;20168;-88
2023/07/04 05:41:53;;;;;;;27.58;5.10;;;16.60;99.90;;;;;;5093913;23;20148;-87
2023/07/04 05:43:56;;;;;;;28.55;4.60;;;16.70;99.90;;;;;;5069422;23;20169;-93
2023/07/04 05:45:56;;;;;;;23.02;3.83;;;16.80;99.90;;;;;;5069585;23;20150;-87
2023/07/04 05:47:57;;;;;;;28.70;4.50;;;16.80;99.90;;;;;;5118340;23;20168;-87
2023/07/04 05:49:58;;;;;;;21.92;4.40;;;16.70;99.90;;;;;;5093594;23;20188;-87
2023/07/04 05:51:59;;;;;;;25.70;3.92;;;16.70;99.90;;;;;;5093937;23;20153;-87
2023/07/04 05:53:59;;;;;;;29.25;4.28;;;16.80;99.90;;;;;;5093617;23;20195;-87
2023/07/04 05:56:15;;;;;;;26.38;4.18;;;17.10;99.90;;;;;;5069208;23;20149;-87
2023/07/04 05:58:16;;;;;;;25.90;4.05;;;17.10;99.90;;;;;;5093799;23;20187;-87
2023/07/04 06:00:17;;;;;;;26.02;4.25;;;17.00;99.90;;;;;;5069426;23;20248;-87
2023/07/04 06:02:19;;;;;;;25.95;4.18;;;17.10;99.90;;;;;;5094154;23;20508;-87
2023/07/04 06:04:19;;;;;;;28.30;4.65;;;17.20;99.90;;;;;;5069440;23;20161;-88
2023/07/04 06:06:26;;;;;;;23.50;3.83;;;17.20;99.90;;;;;;5093463;23;20635;-87
2023/07/04 06:08:27;;;;;;;26.17;4.28;;;17.20;99.90;;;;;;5069381;23;20257;-87
2023/07/04 06:10:27;;;;;;;29.30;4.95;;;17.30;99.90;;;;;;5093519;23;20156;-87
2023/07/04 06:12:28;;;;;;;25.88;4.75;;;17.50;99.90;;;;;;5069088;23;20150;-87
2023/07/04 06:14:30;;;;;;;25.27;4.60;;;17.70;99.90;;;;;;5069386;23;20245;-87
2023/07/04 06:16:31;;;;;;;24.30;4.07;;;17.70;99.90;;;;;;5069443;23;20213;-87
2023/07/04 06:18:31;;;;;;;28.58;4.75;;;17.90;99.90;;;;;;5118052;23;20168;-89
2023/07/04 06:20:32;;;;;;;25.65;4.32;;;17.90;99.90;;;;;;5093503;23;20145;-87
2023/07/04 06:22:33;;;;;;;21.25;4.10;;;18.00;99.90;;;;;;5093507;23;20149;-87
2023/07/04 06:24:36;;;;;;;23.83;4.80;;;18.00;99.90;;;;;;5069072;23;20510;-88
2023/07/04 06:26:37;;;;;;;27.17;4.93;;;18.00;99.90;;;;;;5093647;23;20160;-88
2023/07/04 06:28:38;;;;;;;21.85;4.00;;;18.20;99.90;;;;;;5068912;23;20174;-88
2023/07/04 06:30:39;;;;;;;21.52;4.15;;;18.30;99.90;;;;;;5069225;23;20614;-87
2023/07/04 06:32:40;;;;;;;19.77;4.07;;;18.50;99.90;;;;;;5068648;23;20154;-87
2023/07/04 06:34:41;;;;;;;29.63;4.43;;;18.60;99.90;;;;;;5068714;23;20736;-88
2023/07/04 06:36:48;;;;;;;21.10;4.97;;;18.60;99.90;;;;;;5068809;23;20146;-88
2023/07/04 06:38:49;;;;;;;29.30;4.65;;;18.70;99.90;;;;;;5093123;23;20619;-88
2023/07/04 06:41:01;;;;;;;22.90;4.40;;;18.80;99.90;;;;;;5069338;23;20487;-88
2023/07/04 06:43:03;;;;;;;21.67;5.30;;;18.70;99.90;;;;;;5068701;23;20157;-87
2023/07/04 06:45:04;;;;;;;32.03;5.00;;;18.90;99.90;;;;;;5093427;23;20181;-88
2023/07/04 06:47:05;;;;;;;27.20;4.43;;;19.10;99.90;;;;;;5093096;23;20236;-88
2023/07/04 06:49:06;;;;;;;29.75;4.40;;;19.40;99.90;;;;;;5093277;23;20229;-88
2023/07/04 06:51:12;;;;;;;24.77;4.88;;;19.70;99.90;;;;;;5093246;23;20160;-87
2023/07/04 06:53:12;;;;;;;29.48;4.43;;;19.80;99.90;;;;;;5068656;23;20236;-92
2023/07/04 06:55:13;;;;;;;30.33;4.82;;;19.50;99.90;;;;;;5092460;23;20199;-88
2023/07/04 06:57:14;;;;;;;22.65;3.95;;;19.40;99.90;;;;;;5093053;23;20149;-87
2023/07/04 06:59:15;;;;;;;21.77;4.03;;;19.30;99.90;;;;;;5068537;23;20220;-87
2023/07/04 07:01:17;;;;;;;24.23;4.78;;;19.50;99.90;;;;;;5092867;23;20156;-87
2023/07/04 07:03:18;;;;;;;28.92;4.65;;;19.70;99.90;;;;;;5068621;23;20149;-87
2023/07/04 07:05:18;;;;;;;26.17;4.80;;;19.60;99.90;;;;;;5093109;23;20171;-87
2023/07/04 07:07:19;;;;;;;23.98;4.43;;;19.90;99.90;;;;;;5068685;23;20165;-88
2023/07/04 07:09:20;;;;;;;22.67;4.47;;;19.80;99.90;;;;;;5068603;23;20154;-88
2023/07/04 07:11:21;;;;;;;31.38;5.25;;;19.80;99.90;;;;;;5068512;23;20157;-87
2023/07/04 07:13:22;;;;;;;19.80;4.10;;;20.10;99.90;;;;;;5068448;23;20237;-87
2023/07/04 07:15:22;;;;;;;24.40;4.15;;;20.40;99.90;;;;;;5068909;23;20157;-87
2023/07/04 07:17:23;;;;;;;26.42;4.43;;;20.50;99.90;;;;;;5092995;23;20163;-88
2023/07/04 07:19:25;;;;;;;23.17;4.45;;;20.90;99.90;;;;;;5118915;23;20472;-87
2023/07/04 07:21:26;;;;;;;20.20;4.43;;;21.00;99.90;;;;;;5118775;23;20175;-87
2023/07/04 07:23:28;;;;;;;23.60;4.35;;;21.60;99.90;;;;;;5117755;23;20148;-88
2023/07/04 07:25:28;;;;;;;20.08;3.92;;;22.40;99.90;;;;;;5093129;23;20568;-87
2023/07/04 07:27:29;;;;;;;18.77;3.85;;;23.30;99.90;;;;;;5092607;23;20153;-88
2023/07/04 07:29:29;;;;;;;20.52;4.45;;;23.80;99.90;;;;;;5068550;23;20157;-87
2023/07/04 07:31:30;;;;;;;18.20;3.30;;;24.20;99.90;;;;;;5093200;23;20188;-88
2023/07/04 07:33:32;;;;;;;20.45;3.88;;;24.70;99.90;;;;;;5092761;23;20232;-88
2023/07/04 07:35:33;;;;;;;24.55;4.57;;;24.80;99.90;;;;;;5068427;23;20153;-88
2023/07/04 07:37:34;;;;;;;23.80;4.45;;;24.90;99.90;;;;;;5092610;23;20149;-88
2023/07/04 07:39:34;;;;;;;17.20;4.35;;;25.60;99.90;;;;;;5092723;23;20157;-88
2023/07/04 07:41:39;;;;;;;15.50;3.42;;;26.50;99.90;;;;;;5068223;23;20157;-88
2023/07/04 07:43:41;;;;;;;28.17;4.97;;;27.40;99.90;;;;;;5092605;23;20157;-86
2023/07/04 07:45:42;;;;;;;21.38;4.45;;;28.10;99.90;;;;;;5092728;23;20145;-88
2023/07/04 07:47:42;;;;;;;18.95;4.03;;;28.10;99.90;;;;;;5092748;23;20296;-86
2023/07/04 07:49:43;;;;;;;21.25;3.78;;;28.60;99.90;;;;;;5068399;23;20711;-88
2023/07/04 07:51:44;;;;;;;17.48;4.18;;;28.90;99.90;;;;;;5092638;23;20239;-86
2023/07/04 07:53:47;;;;;;;15.57;3.83;;;28.90;99.90;;;;;;5092442;23;20181;-88
2023/07/04 07:55:47;;;;;;;19.75;4.07;;;28.10;99.90;;;;;;5092942;23;20195;-85
2023/07/04 07:57:48;;;;;;;16.88;3.90;;;27.50;99.90;;;;;;5092973;23;20264;-86
2023/07/04 07:59:49;;;;;;;15.55;3.28;;;27.20;99.90;;;;;;5068365;23;20179;-85
2023/07/04 08:01:52;;;;;;;14.65;3.13;;;27.30;99.90;;;;;;5092796;23;20626;-85
2023/07/04 08:03:52;;;;;;;14.00;3.30;;;27.60;99.90;;;;;;5068601;23;20153;-85
2023/07/04 08:05:53;;;;;;;17.17;4.07;;;28.10;99.90;;;;;;5097467;23;20623;-91
2023/07/04 08:07:54;;;;;;;19.80;3.85;;;28.10;99.90;;;;;;5093092;23;20173;-91
2023/07/04 08:09:56;;;;;;;21.15;3.53;;;27.40;99.90;;;;;;5093580;23;20153;-91
2023/07/04 08:11:57;;;;;;;18.42;3.83;;;27.40;99.90;;;;;;5093138;23;20157;-86
2023/07/04 08:13:58;;;;;;;17.45;3.55;;;27.50;99.90;;;;;;5144213;23;20214;-91
2023/07/04 08:15:59;;;;;;;17.85;3.83;;;27.30;99.90;;;;;;5094889;23;20144;-91
2023/07/04 08:18:05;;;;;;;14.25;3.78;;;26.70;99.90;;;;;;5119308;23;20172;-92
2023/07/04 08:20:06;;;;;;;16.52;3.38;;;26.10;99.90;;;;;;5094832;23;20224;-90
2023/07/04 08:22:07;;;;;;;14.38;3.30;;;25.30;99.90;;;;;;5119289;23;20164;-91
2023/07/04 08:24:10;;;;;;;14.88;3.78;;;24.70;99.90;;;;;;5143747;23;20155;-90
2023/07/04 08:26:19;;;;;;;17.73;3.80;;;24.30;99.90;;;;;;5094726;23;20169;-91
2023/07/04 08:28:25;;;;;;;17.98;3.70;;;24.40;99.90;;;;;;5094865;23;20172;-90
2023/07/04 08:30:26;;;;;;;18.17;3.78;;;24.40;99.90;;;;;;5119542;23;20163;-90
2023/07/04 08:32:29;;;;;;;21.00;4.05;;;24.10;99.90;;;;;;5094672;23;20168;-90
2023/07/04 08:34:29;;;;;;;19.02;3.50;;;24.00;99.90;;;;;;5118782;23;20210;-92
2023/07/04 08:36:31;;;;;;;14.15;2.95;;;24.40;99.90;;;;;;5119172;23;20148;-91
2023/07/04 08:38:31;;;;;;;14.15;2.72;;;25.00;99.90;;;;;;5119467;23;20705;-92
2023/07/04 08:40:32;;;;;;;18.33;4.00;;;25.50;99.90;;;;;;5119406;23;20161;-92
2023/07/04 08:42:36;;;;;;;17.20;3.50;;;26.40;99.90;;;;;;5094638;23;20532;-91
2023/07/04 08:44:46;;;;;;;14.38;3.42;;;27.50;99.90;;;;;;5119291;23;20148;-91
2023/07/04 08:46:50;;;;;;;21.73;3.75;;;28.20;99.90;;;;;;5094603;23;20211;-91
2023/07/04 08:48:52;;;;;;;18.10;3.30;;;28.80;99.90;;;;;;5095880;23;20247;-91
2023/07/04 08:50:54;;;;;;;15.23;3.63;;;28.60;99.90;;;;;;5094560;23;20152;-91
2023/07/04 08:53:09;;;;;;;13.63;3.05;;;28.00;99.90;;;;;;5094549;23;20151;-91
2023/07/04 08:55:13;;;;;;;14.25;3.20;;;28.30;99.90;;;;;;5094583;23;20188;-91
2023/07/04 08:57:45;;;;;;;16.73;3.25;;;28.30;99.90;;;;;;5094870;23;20213;-92
2023/07/04 08:59:49;;;;;;;10.65;3.30;;;28.80;99.90;;;;;;5084754;23;20231;-91
2023/07/04 09:02:14;;;;;;;14.13;3.35;;;28.50;99.90;;;;;;5094717;23;20153;-91
2023/07/04 09:04:46;;;;;;;15.60;3.28;;;28.50;99.90;;;;;;5120006;23;20152;-93
2023/07/04 09:07:28;;;;;;;17.55;3.67;;;29.00;99.90;;;;;;5121420;23;20166;-94
2023/07/04 09:09:51;;;;;;;15.43;3.75;;;28.10;99.90;;;;;;5064399;23;20153;-91
2023/07/04 09:11:52;;;;;;;17.00;3.90;;;28.40;99.90;;;;;;5094269;23;20145;-92
2023/07/04 09:14:00;;;;;;;16.02;3.83;;;28.70;99.90;;;;;;5095097;23;20271;-92
2023/07/04 09:16:06;;;;;;;16.05;3.53;;;28.50;99.90;;;;;;5094446;23;20478;-91
2023/07/04 09:18:39;;;;;;;11.02;3.50;;;28.70;99.90;;;;;;5094318;23;20626;-93
2023/07/04 09:21:13;;;;;;;22.88;4.13;;;28.50;99.90;;;;;;5118812;23;20152;-93
2023/07/04 09:23:17;;;;;;;12.93;3.58;;;28.70;99.90;;;;;;5064635;23;20155;-92
2023/07/04 09:25:18;;;;;;;16.60;3.50;;;28.90;99.90;;;;;;5094071;23;20168;-92
2023/07/04 09:27:22;;;;;;;17.08;3.60;;;28.60;99.90;;;;;;5094022;23;20172;-94
2023/07/04 09:29:24;;;;;;;13.95;3.45;;;28.20;99.90;;;;;;5119763;23;20568;-92
2023/07/04 09:31:31;;;;;;;18.77;4.45;;;27.90;99.90;;;;;;5095770;23;20153;-94
2023/07/04 09:33:35;;;;;;;17.88;3.88;;;27.40;99.90;;;;;;5100210;23;20157;-93
2023/07/04 09:35:36;;;;;;;14.38;3.47;;;27.80;99.90;;;;;;5122492;23;20164;-94
2023/07/04 09:37:58;;;;;;;14.38;4.10;;;28.40;99.90;;;;;;5121477;23;20148;-94
2023/07/04 09:40:01;;;;;;;13.57;3.55;;;28.90;99.90;;;;;;5098146;23;20235;-95
2023/07/04 09:42:01;;;;;;;15.63;4.20;;;28.70;99.90;;;;;;5096968;23;20180;-95
2023/07/04 09:44:26;;;;;;;14.48;3.90;;;28.50;99.90;;;;;;5147250;23;20155;-96
2023/07/04 09:46:30;;;;;;;16.33;4.05;;;28.20;99.90;;;;;;5095602;23;20248;-95
2023/07/04 09:48:32;;;;;;;16.17;4.25;;;28.00;99.90;;;;;;5098276;23;20259;-96
2023/07/04 09:50:37;;;;;;;18.25;4.30;;;27.20;99.90;;;;;;5120409;23;20239;-95
2023/07/04 09:52:39;;;;;;;22.10;4.43;;;27.00;99.90;;;;;;5094742;23;20199;-93
2023/07/04 09:54:41;;;;;;;15.88;3.47;;;27.20;99.90;;;;;;5095240;23;20192;-96
2023/07/04 09:56:42;;;;;;;14.10;4.10;;;27.30;99.90;;;;;;5094919;23;20180;-93
2023/07/04 09:58:44;;;;;;;10.60;3.67;;;26.70;99.90;;;;;;5094324;23;20271;-93
2023/07/04 10:00:59;;;;;;;14.60;3.75;;;26.20;99.90;;;;;;5119762;23;20175;-92
2023/07/04 10:03:08;;;;;;;17.67;3.60;;;25.90;99.90;;;;;;5119716;23;20155;-93
2023/07/04 10:05:10;;;;;;;18.83;3.60;;;25.80;99.90;;;;;;5099584;23;20164;-93
2023/07/04 10:07:17;;;;;;;17.92;3.92;;;26.20;99.90;;;;;;5097439;23;20167;-93
2023/07/04 10:09:20;;;;;;;15.43;3.30;;;26.60;99.90;;;;;;5095350;23;20180;-93
2023/07/04 10:11:33;;;;;;;12.05;3.80;;;26.90;99.90;;;;;;5094782;23;20153;-94
2023/07/04 10:13:38;;;;;;;12.48;3.90;;;27.40;99.90;;;;;;5096651;23;20240;-95
2023/07/04 10:15:45;;;;;;;11.35;3.75;;;27.90;99.90;;;;;;5102271;23;20172;-93
2023/07/04 10:17:48;;;;;;;18.55;4.43;;;28.30;99.90;;;;;;5094569;23;20687;-94
2023/07/04 10:19:54;;;;;;;17.63;4.10;;;28.50;99.90;;;;;;5094289;23;20159;-93
2023/07/04 10:21:55;;;;;;;16.23;3.70;;;28.40;99.90;;;;;;5094210;23;20149;-91
2023/07/04 10:23:59;;;;;;;14.90;3.95;;;28.30;99.90;;;;;;5143340;23;20144;-94
2023/07/04 10:26:01;;;;;;;16.63;4.25;;;28.10;99.90;;;;;;5095465;23;20203;-91
2023/07/04 10:28:13;;;;;;;12.82;3.97;;;27.50;99.90;;;;;;5094859;23;20171;-91
2023/07/04 10:30:22;;;;;;;14.05;4.30;;;27.60;99.90;;;;;;5093895;23;20626;-92
2023/07/04 10:32:24;;;;;;;15.77;3.92;;;26.70;99.90;;;;;;5093859;23;20149;-91